KDVT/DVT METAR and TAF weather

Enter ICAO airport designator
Station Type Date Time Source
KDVT METAR 2018/12/12 15:53 UTC NOAA

KDVT 121553Z 00000KT 10SM CLR 11/04 A3006 RMK AO2 SLP170 T01110039


Station Type Date Time Source
KDVT Decoded METAR 2018/12/12 15:53 UTC NOAA

PHOENIX-DEER VALLEY MUN, AZ, United States (KDVT) 33-41N 112-04W 443M
Dec 12, 2018 - 10:53 AM EST / 2018.12.12 1553 UTC
Wind: Calm:0
Visibility: 10 mile(s):0
Sky conditions: clear
Temperature: 52.0 F (11.1 C)
Dew Point: 39.0 F (3.9 C)
Relative Humidity: 61%
Pressure (altimeter): 30.06 in. Hg (1017 hPa)
ob: KDVT 121553Z 00000KT 10SM CLR 11/04 A3006 RMK AO2 SLP170 T01110039
cycle: 16

Station Type Date Time Source
KDVT TAF UTC NOAA

Error!


Example: see airport list